Date,TemperatureHighF,TemperatureAvgF,TemperatureLowF,DewpointHighF,DewpointAvgF,DewpointLowF,HumidityHigh,HumidityAvg,HumidityLow,PressureMaxIn,PressureMinIn,WindSpeedMaxMPH,WindSpeedAvgMPH,GustSpeedMaxMPH,PrecipitationSumIn
2013-8-1,86.2,82.3,78.7,78.8,77.6,76.2,95,86,74,29.99,29.90,17,6,17,0.00
2013-8-2,86.9,82.6,78.6,79.4,77.6,76.4,94,85,75,29.96,29.87,16,7,16,0.00
2013-8-3,87.5,83.5,79.8,80.1,78.7,75.7,93,86,75,29.99,29.91,17,8,17,0.00
2013-8-4,88.0,83.9,80.8,80.5,79.0,77.7,93,86,77,30.02,29.93,20,8,20,0.00
2013-8-5,87.8,83.6,80.3,80.3,78.8,77.9,94,86,76,30.00,29.89,20,9,20,0.00
2013-8-6,87.0,83.0,79.8,80.0,78.6,77.7,94,87,77,29.93,29.82,25,11,25,0.00
2013-8-7,86.9,82.4,79.1,79.6,78.1,76.9,93,87,78,29.90,29.80,20,10,20,0.00
2013-8-8,86.5,81.8,78.1,79.6,78.0,76.3,95,89,79,29.88,29.80,21,9,21,0.00
2013-8-9,87.5,81.7,77.9,79.9,77.4,74.5,95,87,67,29.92,29.84,17,6,17,0.00
2013-8-10,84.6,82.2,79.8,80.8,79.0,75.7,96,90,78,29.97,29.90,18,8,18,0.00
2013-8-11,84.9,81.8,77.6,80.1,77.5,74.7,94,87,74,30.00,29.94,18,6,18,0.20
2013-8-12,85.4,82.4,78.9,80.3,78.2,76.1,93,87,76,30.04,29.93,17,7,17,0.00
2013-8-13,88.2,83.8,80.8,79.9,79.0,77.7,92,86,74,30.01,29.87,20,9,20,0.00
2013-8-14,88.2,83.3,80.0,79.5,78.0,75.6,93,84,69,29.96,29.86,18,8,18,0.00
2013-8-15,86.5,82.5,78.7,78.9,77.7,75.8,92,86,76,29.95,29.87,20,8,20,0.00
2013-8-16,86.4,83.1,77.9,79.5,77.9,73.7,91,85,69,29.97,29.85,28,7,28,0.23
2013-8-17,84.0,81.1,78.1,77.1,75.6,72.7,92,83,75,29.96,29.87,21,10,21,0.24
2013-8-18,84.9,82.1,78.8,76.8,74.5,70.0,90,78,63,29.99,29.91,20,8,20,0.00
2013-8-19,85.0,82.5,80.2,76.5,75.0,73.2,84,78,73,29.99,29.88,18,9,18,0.00
2013-8-20,81.9,79.4,74.1,77.2,75.2,71.3,94,87,81,29.99,29.89,17,8,17,1.16
2013-8-21,86.0,83.4,81.4,79.2,77.9,76.5,89,84,77,30.00,29.94,16,9,16,0.00
2013-8-22,84.9,82.8,80.3,78.2,77.1,74.8,89,83,72,30.01,29.89,14,6,14,0.00
2013-8-23,85.8,83.5,81.2,78.4,77.2,75.8,86,82,74,29.96,29.85,20,8,20,0.00
2013-8-24,85.6,83.7,81.2,79.4,77.8,75.2,88,83,75,29.96,29.88,22,11,22,0.00
2013-8-25,85.7,83.3,80.9,79.0,77.8,76.7,91,84,77,30.00,29.93,20,10,20,0.00
2013-8-26,83.1,79.5,75.9,77.8,75.6,72.8,95,88,81,30.05,29.96,20,5,20,2.30
2013-8-27,86.9,83.9,80.2,79.0,77.6,73.5,89,82,73,30.04,29.95,25,10,25,0.03
2013-8-28,84.8,82.8,78.5,78.4,76.6,73.3,86,82,73,30.04,29.96,21,8,21,0.04
2013-8-29,87.1,84.0,81.3,77.9,76.6,74.3,85,79,67,30.04,29.94,14,6,14,0.00
2013-8-30,87.5,83.5,79.3,77.4,76.1,73.8,92,79,66,29.99,29.88,14,6,14,0.00
2013-8-31,88.4,83.7,79.2,77.4,76.1,74.0,88,78,66,29.92,29.81,17,7,17,0.00